sensor_id;sensor_type;location;lat;lon;timestamp;temperature;humidity
57892;DHT22;43708;48.828;9.166;2023-02-20T00:00:37;21.00;84.00
57892;DHT22;43708;48.828;9.166;2023-02-20T00:03:04;21.00;84.00
57892;DHT22;43708;48.828;9.166;2023-02-20T00:05:29;21.00;84.00
57892;DHT22;43708;48.828;9.166;2023-02-20T00:07:55;21.00;84.10
57892;DHT22;43708;48.828;9.166;2023-02-20T00:10:20;21.00;84.00
57892;DHT22;43708;48.828;9.166;2023-02-20T00:12:46;20.90;83.90
57892;DHT22;43708;48.828;9.166;2023-02-20T00:15:17;20.90;84.00
57892;DHT22;43708;48.828;9.166;2023-02-20T00:17:44;20.90;84.00
57892;DHT22;43708;48.828;9.166;2023-02-20T00:20:13;20.90;83.90
57892;DHT22;43708;48.828;9.166;2023-02-20T00:22:39;20.90;84.00
57892;DHT22;43708;48.828;9.166;2023-02-20T00:25:05;20.90;83.90
57892;DHT22;43708;48.828;9.166;2023-02-20T00:27:31;20.90;83.90
57892;DHT22;43708;48.828;9.166;2023-02-20T00:29:56;20.90;83.90
57892;DHT22;43708;48.828;9.166;2023-02-20T00:32:22;20.90;83.90
57892;DHT22;43708;48.828;9.166;2023-02-20T00:34:47;20.90;83.90
57892;DHT22;43708;48.828;9.166;2023-02-20T00:37:13;20.90;84.70
57892;DHT22;43708;48.828;9.166;2023-02-20T00:39:39;20.80;83.90
57892;DHT22;43708;48.828;9.166;2023-02-20T00:42:04;20.80;83.80
57892;DHT22;43708;48.828;9.166;2023-02-20T00:44:30;20.80;83.80
57892;DHT22;43708;48.828;9.166;2023-02-20T00:46:56;20.80;83.80
57892;DHT22;43708;48.828;9.166;2023-02-20T00:49:22;20.80;83.80
57892;DHT22;43708;48.828;9.166;2023-02-20T00:51:48;20.80;83.80
57892;DHT22;43708;48.828;9.166;2023-02-20T00:54:14;20.80;83.80
57892;DHT22;43708;48.828;9.166;2023-02-20T00:56:40;20.80;83.70
57892;DHT22;43708;48.828;9.166;2023-02-20T00:59:05;20.90;83.70
57892;DHT22;43708;48.828;9.166;2023-02-20T01:01:31;20.90;83.70
57892;DHT22;43708;48.828;9.166;2023-02-20T01:03:57;20.90;83.60
57892;DHT22;43708;48.828;9.166;2023-02-20T01:06:23;20.90;83.60
57892;DHT22;43708;48.828;9.166;2023-02-20T01:08:48;20.90;83.50
57892;DHT22;43708;48.828;9.166;2023-02-20T01:11:14;21.00;83.50
57892;DHT22;43708;48.828;9.166;2023-02-20T01:13:39;21.00;83.50
57892;DHT22;43708;48.828;9.166;2023-02-20T01:16:06;21.00;83.40
57892;DHT22;43708;48.828;9.166;2023-02-20T01:18:32;21.00;83.40
57892;DHT22;43708;48.828;9.166;2023-02-20T01:20:57;21.00;83.40
57892;DHT22;43708;48.828;9.166;2023-02-20T01:23:23;21.10;83.30
57892;DHT22;43708;48.828;9.166;2023-02-20T01:25:49;21.10;83.30
57892;DHT22;43708;48.828;9.166;2023-02-20T01:28:15;21.10;83.30
57892;DHT22;43708;48.828;9.166;2023-02-20T01:30:40;21.10;83.30
57892;DHT22;43708;48.828;9.166;2023-02-20T01:33:06;21.10;83.30
57892;DHT22;43708;48.828;9.166;2023-02-20T01:35:32;21.10;83.20
57892;DHT22;43708;48.828;9.166;2023-02-20T01:37:58;21.10;83.30
57892;DHT22;43708;48.828;9.166;2023-02-20T01:40:25;21.10;83.20
57892;DHT22;43708;48.828;9.166;2023-02-20T01:42:51;21.10;83.20
57892;DHT22;43708;48.828;9.166;2023-02-20T01:47:50;21.10;83.20
57892;DHT22;43708;48.828;9.166;2023-02-20T01:50:19;21.10;83.20
57892;DHT22;43708;48.828;9.166;2023-02-20T01:52:48;21.10;83.10
57892;DHT22;43708;48.828;9.166;2023-02-20T01:55:42;21.10;83.40
57892;DHT22;43708;48.828;9.166;2023-02-20T01:58:14;21.10;83.10
57892;DHT22;43708;48.828;9.166;2023-02-20T02:00:40;21.10;83.20
57892;DHT22;43708;48.828;9.166;2023-02-20T02:03:10;21.10;83.20
57892;DHT22;43708;48.828;9.166;2023-02-20T02:05:39;21.10;83.20
57892;DHT22;43708;48.828;9.166;2023-02-20T02:08:07;21.10;83.10
57892;DHT22;43708;48.828;9.166;2023-02-20T02:10:51;21.10;83.10
57892;DHT22;43708;48.828;9.166;2023-02-20T02:13:20;21.10;83.20
57892;DHT22;43708;48.828;9.166;2023-02-20T02:15:46;21.10;83.20
57892;DHT22;43708;48.828;9.166;2023-02-20T02:18:44;21.10;83.20
57892;DHT22;43708;48.828;9.166;2023-02-20T02:24:42;21.00;83.10
57892;DHT22;43708;48.828;9.166;2023-02-20T02:38:31;21.00;83.10
57892;DHT22;43708;48.828;9.166;2023-02-20T02:43:44;20.90;83.00
57892;DHT22;43708;48.828;9.166;2023-02-20T02:51:38;20.90;83.10
57892;DHT22;43708;48.828;9.166;2023-02-20T02:54:19;20.90;83.00
57892;DHT22;43708;48.828;9.166;2023-02-20T02:56:47;20.90;83.80
57892;DHT22;43708;48.828;9.166;2023-02-20T02:59:19;20.90;83.10
57892;DHT22;43708;48.828;9.166;2023-02-20T03:01:50;20.90;83.20
57892;DHT22;43708;48.828;9.166;2023-02-20T03:04:18;20.80;83.10
57892;DHT22;43708;48.828;9.166;2023-02-20T03:06:50;20.80;83.10
57892;DHT22;43708;48.828;9.166;2023-02-20T03:09:42;20.80;83.00
57892;DHT22;43708;48.828;9.166;2023-02-20T03:12:10;20.80;83.00
57892;DHT22;43708;48.828;9.166;2023-02-20T03:17:31;20.90;83.00
57892;DHT22;43708;48.828;9.166;2023-02-20T03:20:06;20.90;82.80
57892;DHT22;43708;48.828;9.166;2023-02-20T03:22:49;20.90;82.70
57892;DHT22;43708;48.828;9.166;2023-02-20T03:25:28;21.00;82.80
57892;DHT22;43708;48.828;9.166;2023-02-20T03:33:12;21.10;82.60
57892;DHT22;43708;48.828;9.166;2023-02-20T03:36:01;21.10;82.60
57892;DHT22;43708;48.828;9.166;2023-02-20T03:38:56;21.10;82.50
57892;DHT22;43708;48.828;9.166;2023-02-20T03:41:43;21.20;82.50
57892;DHT22;43708;48.828;9.166;2023-02-20T03:44:29;21.20;82.40
57892;DHT22;43708;48.828;9.166;2023-02-20T03:46:57;21.20;82.40
57892;DHT22;43708;48.828;9.166;2023-02-20T03:49:28;21.20;82.40
57892;DHT22;43708;48.828;9.166;2023-02-20T03:52:03;21.20;82.30
57892;DHT22;43708;48.828;9.166;2023-02-20T03:54:29;21.30;82.30
57892;DHT22;43708;48.828;9.166;2023-02-20T03:57:03;21.30;82.30
57892;DHT22;43708;48.828;9.166;2023-02-20T03:59:40;21.30;82.20
57892;DHT22;43708;48.828;9.166;2023-02-20T04:02:19;21.30;82.20
57892;DHT22;43708;48.828;9.166;2023-02-20T04:04:48;21.30;82.20
57892;DHT22;43708;48.828;9.166;2023-02-20T04:07:20;21.30;82.10
57892;DHT22;43708;48.828;9.166;2023-02-20T04:09:47;21.30;82.20
57892;DHT22;43708;48.828;9.166;2023-02-20T04:14:42;21.30;82.20
57892;DHT22;43708;48.828;9.166;2023-02-20T04:17:12;21.30;82.20
57892;DHT22;43708;48.828;9.166;2023-02-20T04:19:39;21.30;82.10
57892;DHT22;43708;48.828;9.166;2023-02-20T04:22:09;21.30;82.10
57892;DHT22;43708;48.828;9.166;2023-02-20T04:24:46;21.40;82.10
57892;DHT22;43708;48.828;9.166;2023-02-20T04:27:13;21.40;82.10
57892;DHT22;43708;48.828;9.166;2023-02-20T04:29:38;21.40;82.00
57892;DHT22;43708;48.828;9.166;2023-02-20T04:32:04;21.30;81.90
57892;DHT22;43708;48.828;9.166;2023-02-20T04:34:30;21.30;82.00
57892;DHT22;43708;48.828;9.166;2023-02-20T04:37:07;21.30;82.10
57892;DHT22;43708;48.828;9.166;2023-02-20T04:39:34;21.30;82.10
57892;DHT22;43708;48.828;9.166;2023-02-20T04:41:59;21.30;82.20
57892;DHT22;43708;48.828;9.166;2023-02-20T04:44:25;21.20;82.20
57892;DHT22;43708;48.828;9.166;2023-02-20T04:46:57;21.20;82.20
57892;DHT22;43708;48.828;9.166;2023-02-20T04:49:23;21.20;82.20
57892;DHT22;43708;48.828;9.166;2023-02-20T04:51:48;21.20;82.30
57892;DHT22;43708;48.828;9.166;2023-02-20T04:54:14;21.20;82.30
57892;DHT22;43708;48.828;9.166;2023-02-20T04:56:40;21.20;82.10
57892;DHT22;43708;48.828;9.166;2023-02-20T04:59:05;21.20;82.20
57892;DHT22;43708;48.828;9.166;2023-02-20T05:01:31;21.20;82.10
57892;DHT22;43708;48.828;9.166;2023-02-20T05:03:57;21.20;82.00
57892;DHT22;43708;48.828;9.166;2023-02-20T05:06:22;21.20;82.00
57892;DHT22;43708;48.828;9.166;2023-02-20T05:08:48;21.20;81.90
57892;DHT22;43708;48.828;9.166;2023-02-20T05:11:14;21.20;81.80
57892;DHT22;43708;48.828;9.166;2023-02-20T05:13:40;21.30;81.90
57892;DHT22;43708;48.828;9.166;2023-02-20T05:16:06;21.30;81.70
57892;DHT22;43708;48.828;9.166;2023-02-20T05:18:33;21.40;81.60
57892;DHT22;43708;48.828;9.166;2023-02-20T05:20:59;21.40;81.60
57892;DHT22;43708;48.828;9.166;2023-02-20T05:23:45;21.50;81.60
57892;DHT22;43708;48.828;9.166;2023-02-20T05:26:15;21.50;81.50
57892;DHT22;43708;48.828;9.166;2023-02-20T05:28:41;21.50;81.40
57892;DHT22;43708;48.828;9.166;2023-02-20T05:31:07;21.60;81.40
57892;DHT22;43708;48.828;9.166;2023-02-20T05:33:32;21.60;81.30
57892;DHT22;43708;48.828;9.166;2023-02-20T05:35:59;21.60;81.30
57892;DHT22;43708;48.828;9.166;2023-02-20T05:38:24;21.60;81.30
57892;DHT22;43708;48.828;9.166;2023-02-20T05:40:50;21.60;81.30
57892;DHT22;43708;48.828;9.166;2023-02-20T05:43:16;21.60;81.20
57892;DHT22;43708;48.828;9.166;2023-02-20T05:45:42;21.70;81.20
57892;DHT22;43708;48.828;9.166;2023-02-20T05:48:07;21.60;81.10
57892;DHT22;43708;48.828;9.166;2023-02-20T05:50:33;21.60;81.30
57892;DHT22;43708;48.828;9.166;2023-02-20T05:52:59;21.60;81.40
57892;DHT22;43708;48.828;9.166;2023-02-20T05:55:25;21.50;81.30
57892;DHT22;43708;48.828;9.166;2023-02-20T05:57:50;21.50;81.40
57892;DHT22;43708;48.828;9.166;2023-02-20T06:00:16;21.50;81.30
57892;DHT22;43708;48.828;9.166;2023-02-20T06:02:42;21.50;81.20
57892;DHT22;43708;48.828;9.166;2023-02-20T06:05:07;21.50;81.20
57892;DHT22;43708;48.828;9.166;2023-02-20T06:07:34;21.60;81.00
57892;DHT22;43708;48.828;9.166;2023-02-20T06:09:59;21.60;81.00
57892;DHT22;43708;48.828;9.166;2023-02-20T06:12:25;21.50;81.00
57892;DHT22;43708;48.828;9.166;2023-02-20T06:14:51;21.50;81.00
57892;DHT22;43708;48.828;9.166;2023-02-20T06:17:16;21.50;80.90
57892;DHT22;43708;48.828;9.166;2023-02-20T06:19:42;21.50;81.00
57892;DHT22;43708;48.828;9.166;2023-02-20T06:22:07;21.50;81.10
57892;DHT22;43708;48.828;9.166;2023-02-20T06:24:33;21.40;81.20
57892;DHT22;43708;48.828;9.166;2023-02-20T06:26:59;21.40;81.10
57892;DHT22;43708;48.828;9.166;2023-02-20T06:29:26;21.40;81.10
57892;DHT22;43708;48.828;9.166;2023-02-20T06:31:52;21.40;81.20
57892;DHT22;43708;48.828;9.166;2023-02-20T06:34:17;21.40;81.10
57892;DHT22;43708;48.828;9.166;2023-02-20T06:36:43;21.40;81.20
57892;DHT22;43708;48.828;9.166;2023-02-20T06:39:11;21.30;81.10
57892;DHT22;43708;48.828;9.166;2023-02-20T06:41:37;21.30;81.20
57892;DHT22;43708;48.828;9.166;2023-02-20T06:44:04;21.30;81.20
57892;DHT22;43708;48.828;9.166;2023-02-20T06:46:30;21.30;81.10
57892;DHT22;43708;48.828;9.166;2023-02-20T06:48:57;21.30;81.20
57892;DHT22;43708;48.828;9.166;2023-02-20T06:51:31;21.20;81.20
57892;DHT22;43708;48.828;9.166;2023-02-20T06:53:58;21.20;81.20
57892;DHT22;43708;48.828;9.166;2023-02-20T06:56:26;21.20;81.20
57892;DHT22;43708;48.828;9.166;2023-02-20T06:58:53;21.20;82.00
57892;DHT22;43708;48.828;9.166;2023-02-20T07:01:24;21.10;81.20
57892;DHT22;43708;48.828;9.166;2023-02-20T07:03:53;21.10;81.20
57892;DHT22;43708;48.828;9.166;2023-02-20T07:06:20;21.10;81.20
57892;DHT22;43708;48.828;9.166;2023-02-20T07:08:45;21.10;81.20
57892;DHT22;43708;48.828;9.166;2023-02-20T07:11:12;21.10;81.40
57892;DHT22;43708;48.828;9.166;2023-02-20T07:13:38;21.10;81.30
57892;DHT22;43708;48.828;9.166;2023-02-20T07:16:04;21.00;81.30
57892;DHT22;43708;48.828;9.166;2023-02-20T07:18:30;21.00;81.30
57892;DHT22;43708;48.828;9.166;2023-02-20T07:20:55;21.00;81.40
57892;DHT22;43708;48.828;9.166;2023-02-20T07:23:22;21.00;81.40
57892;DHT22;43708;48.828;9.166;2023-02-20T07:25:48;21.00;81.50
57892;DHT22;43708;48.828;9.166;2023-02-20T07:28:15;21.00;81.50
57892;DHT22;43708;48.828;9.166;2023-02-20T07:30:41;20.90;81.50
57892;DHT22;43708;48.828;9.166;2023-02-20T07:33:07;20.90;81.60
57892;DHT22;43708;48.828;9.166;2023-02-20T07:35:33;20.90;81.60
57892;DHT22;43708;48.828;9.166;2023-02-20T07:37:59;20.90;81.70
57892;DHT22;43708;48.828;9.166;2023-02-20T07:40:24;20.90;81.80
57892;DHT22;43708;48.828;9.166;2023-02-20T07:42:50;20.90;81.80
57892;DHT22;43708;48.828;9.166;2023-02-20T07:45:15;20.90;81.80
57892;DHT22;43708;48.828;9.166;2023-02-20T07:47:41;20.90;81.90
57892;DHT22;43708;48.828;9.166;2023-02-20T07:50:07;20.80;81.90
57892;DHT22;43708;48.828;9.166;2023-02-20T07:52:33;20.80;81.90
57892;DHT22;43708;48.828;9.166;2023-02-20T07:54:58;20.80;82.00
57892;DHT22;43708;48.828;9.166;2023-02-20T07:57:24;20.80;82.10
57892;DHT22;43708;48.828;9.166;2023-02-20T07:59:50;20.80;82.00
57892;DHT22;43708;48.828;9.166;2023-02-20T08:02:15;20.80;82.00
57892;DHT22;43708;48.828;9.166;2023-02-20T08:04:42;20.80;81.90
57892;DHT22;43708;48.828;9.166;2023-02-20T08:07:07;20.80;81.80
57892;DHT22;43708;48.828;9.166;2023-02-20T08:09:33;20.80;81.80
57892;DHT22;43708;48.828;9.166;2023-02-20T08:11:59;20.70;81.80
57892;DHT22;43708;48.828;9.166;2023-02-20T08:14:24;20.50;82.10
57892;DHT22;43708;48.828;9.166;2023-02-20T08:16:52;20.30;82.00
57892;DHT22;43708;48.828;9.166;2023-02-20T08:19:18;20.20;81.50
57892;DHT22;43708;48.828;9.166;2023-02-20T08:21:43;20.10;81.20
57892;DHT22;43708;48.828;9.166;2023-02-20T08:24:09;20.20;81.00
57892;DHT22;43708;48.828;9.166;2023-02-20T08:26:42;20.30;80.80
57892;DHT22;43708;48.828;9.166;2023-02-20T08:29:08;20.30;80.60
57892;DHT22;43708;48.828;9.166;2023-02-20T08:31:34;20.40;80.40
57892;DHT22;43708;48.828;9.166;2023-02-20T08:33:59;20.50;80.20
57892;DHT22;43708;48.828;9.166;2023-02-20T08:36:25;20.50;80.00
57892;DHT22;43708;48.828;9.166;2023-02-20T08:38:51;20.60;80.00
57892;DHT22;43708;48.828;9.166;2023-02-20T08:41:16;20.60;79.80
57892;DHT22;43708;48.828;9.166;2023-02-20T08:43:43;20.70;79.60
57892;DHT22;43708;48.828;9.166;2023-02-20T08:46:09;20.70;79.50
57892;DHT22;43708;48.828;9.166;2023-02-20T08:48:35;20.80;79.60
57892;DHT22;43708;48.828;9.166;2023-02-20T08:51:01;20.80;79.50
57892;DHT22;43708;48.828;9.166;2023-02-20T08:53:26;20.80;79.40
57892;DHT22;43708;48.828;9.166;2023-02-20T08:55:52;20.80;79.40
57892;DHT22;43708;48.828;9.166;2023-02-20T08:58:22;20.90;79.40
57892;DHT22;43708;48.828;9.166;2023-02-20T09:00:49;20.90;79.30
57892;DHT22;43708;48.828;9.166;2023-02-20T09:03:14;20.90;79.40
57892;DHT22;43708;48.828;9.166;2023-02-20T09:05:41;20.90;79.30
57892;DHT22;43708;48.828;9.166;2023-02-20T09:08:07;20.90;79.20
57892;DHT22;43708;48.828;9.166;2023-02-20T09:10:33;21.00;79.30
57892;DHT22;43708;48.828;9.166;2023-02-20T09:12:59;21.00;79.30
57892;DHT22;43708;48.828;9.166;2023-02-20T09:15:25;21.00;79.30
57892;DHT22;43708;48.828;9.166;2023-02-20T09:17:51;21.00;79.30
57892;DHT22;43708;48.828;9.166;2023-02-20T09:20:18;21.00;79.30
57892;DHT22;43708;48.828;9.166;2023-02-20T09:22:46;21.00;79.40
57892;DHT22;43708;48.828;9.166;2023-02-20T09:25:13;21.00;79.40
57892;DHT22;43708;48.828;9.166;2023-02-20T09:27:40;21.00;79.40
57892;DHT22;43708;48.828;9.166;2023-02-20T09:30:06;21.00;79.40
57892;DHT22;43708;48.828;9.166;2023-02-20T09:32:32;21.00;79.50
57892;DHT22;43708;48.828;9.166;2023-02-20T09:34:58;21.00;79.50
57892;DHT22;43708;48.828;9.166;2023-02-20T09:37:25;20.90;79.50
57892;DHT22;43708;48.828;9.166;2023-02-20T09:39:50;21.00;79.50
57892;DHT22;43708;48.828;9.166;2023-02-20T09:45:15;20.90;79.50
57892;DHT22;43708;48.828;9.166;2023-02-20T09:51:09;20.90;79.50
57892;DHT22;43708;48.828;9.166;2023-02-20T09:53:32;20.90;79.60
57892;DHT22;43708;48.828;9.166;2023-02-20T09:56:00;20.90;79.60
57892;DHT22;43708;48.828;9.166;2023-02-20T09:58:45;20.90;79.60
57892;DHT22;43708;48.828;9.166;2023-02-20T10:01:16;20.90;79.70
57892;DHT22;43708;48.828;9.166;2023-02-20T10:03:57;20.90;79.60
57892;DHT22;43708;48.828;9.166;2023-02-20T10:06:27;20.90;79.60
57892;DHT22;43708;48.828;9.166;2023-02-20T10:08:54;20.90;79.70
57892;DHT22;43708;48.828;9.166;2023-02-20T10:19:49;20.90;79.70
57892;DHT22;43708;48.828;9.166;2023-02-20T10:22:29;20.90;79.70
57892;DHT22;43708;48.828;9.166;2023-02-20T10:25:23;20.90;79.70
57892;DHT22;43708;48.828;9.166;2023-02-20T10:30:19;20.90;79.60
57892;DHT22;43708;48.828;9.166;2023-02-20T10:32:56;21.00;79.60
57892;DHT22;43708;48.828;9.166;2023-02-20T10:38:25;21.00;79.50
57892;DHT22;43708;48.828;9.166;2023-02-20T10:44:04;21.00;79.40
57892;DHT22;43708;48.828;9.166;2023-02-20T10:46:39;21.10;79.50
57892;DHT22;43708;48.828;9.166;2023-02-20T10:49:13;21.10;79.40
57892;DHT22;43708;48.828;9.166;2023-02-20T10:51:47;21.10;79.30
57892;DHT22;43708;48.828;9.166;2023-02-20T10:54:28;21.10;79.30
57892;DHT22;43708;48.828;9.166;2023-02-20T10:57:34;21.20;79.30
57892;DHT22;43708;48.828;9.166;2023-02-20T11:00:08;21.20;79.30
57892;DHT22;43708;48.828;9.166;2023-02-20T11:02:40;21.20;79.30
57892;DHT22;43708;48.828;9.166;2023-02-20T11:05:11;21.30;79.30
57892;DHT22;43708;48.828;9.166;2023-02-20T11:07:37;21.30;79.20
57892;DHT22;43708;48.828;9.166;2023-02-20T11:10:04;21.30;79.10
57892;DHT22;43708;48.828;9.166;2023-02-20T11:12:40;21.30;79.10
57892;DHT22;43708;48.828;9.166;2023-02-20T11:15:14;21.30;79.10
57892;DHT22;43708;48.828;9.166;2023-02-20T11:17:41;21.40;79.00
57892;DHT22;43708;48.828;9.166;2023-02-20T11:20:37;21.40;79.00
57892;DHT22;43708;48.828;9.166;2023-02-20T11:23:04;21.40;78.80
57892;DHT22;43708;48.828;9.166;2023-02-20T11:25:32;21.40;78.80
57892;DHT22;43708;48.828;9.166;2023-02-20T11:28:08;21.50;78.70
57892;DHT22;43708;48.828;9.166;2023-02-20T11:30:38;21.50;78.60
57892;DHT22;43708;48.828;9.166;2023-02-20T11:33:17;21.50;78.50
57892;DHT22;43708;48.828;9.166;2023-02-20T11:35:45;21.50;78.50
57892;DHT22;43708;48.828;9.166;2023-02-20T11:43:21;21.60;78.30
57892;DHT22;43708;48.828;9.166;2023-02-20T11:45:48;21.70;78.30
57892;DHT22;43708;48.828;9.166;2023-02-20T11:48:18;21.70;78.20
57892;DHT22;43708;48.828;9.166;2023-02-20T11:50:49;21.70;78.20
57892;DHT22;43708;48.828;9.166;2023-02-20T11:53:28;21.70;78.10
57892;DHT22;43708;48.828;9.166;2023-02-20T11:56:14;21.80;78.20
57892;DHT22;43708;48.828;9.166;2023-02-20T11:58:41;21.80;78.10
57892;DHT22;43708;48.828;9.166;2023-02-20T12:01:27;21.80;78.10
57892;DHT22;43708;48.828;9.166;2023-02-20T12:03:54;21.80;78.10
57892;DHT22;43708;48.828;9.166;2023-02-20T12:06:38;21.80;78.10
57892;DHT22;43708;48.828;9.166;2023-02-20T12:09:15;21.90;78.20
57892;DHT22;43708;48.828;9.166;2023-02-20T12:11:42;22.00;78.20
57892;DHT22;43708;48.828;9.166;2023-02-20T12:14:11;22.00;78.20
57892;DHT22;43708;48.828;9.166;2023-02-20T12:17:05;22.00;78.10
57892;DHT22;43708;48.828;9.166;2023-02-20T12:22:38;22.00;78.00
57892;DHT22;43708;48.828;9.166;2023-02-20T12:25:50;22.10;78.00
57892;DHT22;43708;48.828;9.166;2023-02-20T12:39:06;22.00;78.10
57892;DHT22;43708;48.828;9.166;2023-02-20T12:44:32;22.00;78.30
57892;DHT22;43708;48.828;9.166;2023-02-20T12:47:23;22.00;78.30
57892;DHT22;43708;48.828;9.166;2023-02-20T13:00:32;22.00;78.50
57892;DHT22;43708;48.828;9.166;2023-02-20T13:03:09;21.90;78.50
57892;DHT22;43708;48.828;9.166;2023-02-20T13:05:40;21.90;78.50
57892;DHT22;43708;48.828;9.166;2023-02-20T13:10:56;21.90;78.60
57892;DHT22;43708;48.828;9.166;2023-02-20T13:13:27;22.00;78.60
57892;DHT22;43708;48.828;9.166;2023-02-20T13:16:20;21.90;78.60
57892;DHT22;43708;48.828;9.166;2023-02-20T13:21:48;21.90;78.70
57892;DHT22;43708;48.828;9.166;2023-02-20T13:26:50;21.90;78.70
57892;DHT22;43708;48.828;9.166;2023-02-20T13:29:21;21.90;78.80
57892;DHT22;43708;48.828;9.166;2023-02-20T13:31:55;21.90;78.80
57892;DHT22;43708;48.828;9.166;2023-02-20T13:36:50;21.80;79.00
57892;DHT22;43708;48.828;9.166;2023-02-20T13:52:45;21.80;79.10
57892;DHT22;43708;48.828;9.166;2023-02-20T13:55:16;21.80;79.00
57892;DHT22;43708;48.828;9.166;2023-02-20T14:03:28;21.80;79.10
57892;DHT22;43708;48.828;9.166;2023-02-20T14:06:14;21.80;79.10
57892;DHT22;43708;48.828;9.166;2023-02-20T14:08:43;21.80;79.10
57892;DHT22;43708;48.828;9.166;2023-02-20T14:11:32;21.80;79.90
57892;DHT22;43708;48.828;9.166;2023-02-20T14:14:02;21.80;79.10
57892;DHT22;43708;48.828;9.166;2023-02-20T14:16:31;21.80;79.10
57892;DHT22;43708;48.828;9.166;2023-02-20T14:19:05;21.80;79.10
57892;DHT22;43708;48.828;9.166;2023-02-20T14:21:33;21.80;79.10
57892;DHT22;43708;48.828;9.166;2023-02-20T14:24:19;21.80;79.10
57892;DHT22;43708;48.828;9.166;2023-02-20T14:26:45;21.80;79.10
57892;DHT22;43708;48.828;9.166;2023-02-20T14:29:33;21.80;79.10
57892;DHT22;43708;48.828;9.166;2023-02-20T14:32:00;21.80;79.10
57892;DHT22;43708;48.828;9.166;2023-02-20T14:37:35;21.80;79.10
57892;DHT22;43708;48.828;9.166;2023-02-20T14:40:36;21.80;79.10
57892;DHT22;43708;48.828;9.166;2023-02-20T14:42:59;21.80;79.10
57892;DHT22;43708;48.828;9.166;2023-02-20T14:45:26;21.80;79.10
57892;DHT22;43708;48.828;9.166;2023-02-20T14:48:00;21.80;79.10
57892;DHT22;43708;48.828;9.166;2023-02-20T14:50:29;21.80;79.10
57892;DHT22;43708;48.828;9.166;2023-02-20T14:53:14;21.80;79.10
57892;DHT22;43708;48.828;9.166;2023-02-20T14:55:43;21.90;79.10
57892;DHT22;43708;48.828;9.166;2023-02-20T14:58:14;21.90;79.10
57892;DHT22;43708;48.828;9.166;2023-02-20T15:00:41;21.90;79.10
57892;DHT22;43708;48.828;9.166;2023-02-20T15:03:19;21.90;79.10
57892;DHT22;43708;48.828;9.166;2023-02-20T15:05:46;21.90;79.10
57892;DHT22;43708;48.828;9.166;2023-02-20T15:08:19;21.90;79.00
57892;DHT22;43708;48.828;9.166;2023-02-20T15:10:54;21.90;79.00
57892;DHT22;43708;48.828;9.166;2023-02-20T15:15:50;21.80;78.80
57892;DHT22;43708;48.828;9.166;2023-02-20T15:18:40;21.80;78.70
57892;DHT22;43708;48.828;9.166;2023-02-20T15:21:07;21.80;78.60
57892;DHT22;43708;48.828;9.166;2023-02-20T15:23:35;21.80;78.50
57892;DHT22;43708;48.828;9.166;2023-02-20T15:26:33;21.80;78.30
57892;DHT22;43708;48.828;9.166;2023-02-20T15:29:12;21.80;78.10
57892;DHT22;43708;48.828;9.166;2023-02-20T15:31:38;21.80;78.00
57892;DHT22;43708;48.828;9.166;2023-02-20T15:34:12;21.70;77.80
57892;DHT22;43708;48.828;9.166;2023-02-20T15:36:41;21.80;77.70
57892;DHT22;43708;48.828;9.166;2023-02-20T15:39:09;21.70;77.50
57892;DHT22;43708;48.828;9.166;2023-02-20T15:41:36;21.70;77.40
57892;DHT22;43708;48.828;9.166;2023-02-20T15:44:01;21.70;77.30
57892;DHT22;43708;48.828;9.166;2023-02-20T15:46:28;21.60;77.10
57892;DHT22;43708;48.828;9.166;2023-02-20T15:48:53;21.60;77.00
57892;DHT22;43708;48.828;9.166;2023-02-20T15:51:21;21.60;76.90
57892;DHT22;43708;48.828;9.166;2023-02-20T15:53:48;21.50;76.80
57892;DHT22;43708;48.828;9.166;2023-02-20T15:56:16;21.50;76.60
57892;DHT22;43708;48.828;9.166;2023-02-20T15:58:42;21.50;76.60
57892;DHT22;43708;48.828;9.166;2023-02-20T16:01:08;21.40;76.50
57892;DHT22;43708;48.828;9.166;2023-02-20T16:03:34;21.40;76.30
57892;DHT22;43708;48.828;9.166;2023-02-20T16:06:00;21.40;76.20
57892;DHT22;43708;48.828;9.166;2023-02-20T16:08:27;21.30;76.10
57892;DHT22;43708;48.828;9.166;2023-02-20T16:10:53;21.30;76.00
57892;DHT22;43708;48.828;9.166;2023-02-20T16:13:24;21.30;76.00
57892;DHT22;43708;48.828;9.166;2023-02-20T16:15:50;21.30;76.00
57892;DHT22;43708;48.828;9.166;2023-02-20T16:18:16;21.30;75.90
57892;DHT22;43708;48.828;9.166;2023-02-20T16:20:42;21.30;75.90
57892;DHT22;43708;48.828;9.166;2023-02-20T16:23:07;21.30;75.90
57892;DHT22;43708;48.828;9.166;2023-02-20T16:25:35;21.20;76.00
57892;DHT22;43708;48.828;9.166;2023-02-20T16:28:02;21.20;75.90
57892;DHT22;43708;48.828;9.166;2023-02-20T16:30:34;21.20;76.00
57892;DHT22;43708;48.828;9.166;2023-02-20T16:35:35;21.20;76.10
57892;DHT22;43708;48.828;9.166;2023-02-20T16:38:01;21.20;76.10
57892;DHT22;43708;48.828;9.166;2023-02-20T16:40:26;21.20;76.10
57892;DHT22;43708;48.828;9.166;2023-02-20T16:42:52;21.20;76.10
57892;DHT22;43708;48.828;9.166;2023-02-20T16:45:18;21.20;76.20
57892;DHT22;43708;48.828;9.166;2023-02-20T16:47:48;21.20;76.20
57892;DHT22;43708;48.828;9.166;2023-02-20T16:50:16;21.20;76.30
57892;DHT22;43708;48.828;9.166;2023-02-20T16:52:44;21.20;76.30
57892;DHT22;43708;48.828;9.166;2023-02-20T16:55:29;21.10;76.20
57892;DHT22;43708;48.828;9.166;2023-02-20T16:57:55;21.10;76.20
57892;DHT22;43708;48.828;9.166;2023-02-20T17:00:27;21.10;76.30
57892;DHT22;43708;48.828;9.166;2023-02-20T17:02:53;21.10;76.40
57892;DHT22;43708;48.828;9.166;2023-02-20T17:05:22;21.10;76.40
57892;DHT22;43708;48.828;9.166;2023-02-20T17:07:48;21.00;76.40
57892;DHT22;43708;48.828;9.166;2023-02-20T17:10:14;21.00;76.50
57892;DHT22;43708;48.828;9.166;2023-02-20T17:12:40;21.00;76.40
57892;DHT22;43708;48.828;9.166;2023-02-20T17:15:07;21.10;77.20
57892;DHT22;43708;48.828;9.166;2023-02-20T17:17:34;21.10;76.40
57892;DHT22;43708;48.828;9.166;2023-02-20T17:20:00;21.10;76.40
57892;DHT22;43708;48.828;9.166;2023-02-20T17:22:27;21.10;76.40
57892;DHT22;43708;48.828;9.166;2023-02-20T17:24:54;21.20;76.50
57892;DHT22;43708;48.828;9.166;2023-02-20T17:27:20;21.20;76.40
57892;DHT22;43708;48.828;9.166;2023-02-20T17:29:46;21.20;76.40
57892;DHT22;43708;48.828;9.166;2023-02-20T17:32:13;21.30;76.40
57892;DHT22;43708;48.828;9.166;2023-02-20T17:34:39;21.30;76.30
57892;DHT22;43708;48.828;9.166;2023-02-20T17:37:05;21.30;76.40
57892;DHT22;43708;48.828;9.166;2023-02-20T17:39:31;21.30;76.30
57892;DHT22;43708;48.828;9.166;2023-02-20T17:41:57;21.30;76.30
57892;DHT22;43708;48.828;9.166;2023-02-20T17:44:26;21.40;76.30
57892;DHT22;43708;48.828;9.166;2023-02-20T17:46:53;21.40;76.30
57892;DHT22;43708;48.828;9.166;2023-02-20T17:49:20;21.40;76.30
57892;DHT22;43708;48.828;9.166;2023-02-20T17:51:48;21.40;76.30
57892;DHT22;43708;48.828;9.166;2023-02-20T17:54:14;21.40;76.30